Norient Saturn — D5JP2 — position and weather

sailwx.info

Track history (hours):
 
Tides and Currents Weather Stations Pressure Air Temp Water Temp Dewpoint Dewpoint Depression Visibility Wind Speed Wind Dir Waves Ship Positions

Norient Saturn

Last reported at 2017-Sep-24 02:50 UTC. Time now 2017-Sep-24 03:22 UTC.
Position N 58°12' E 011°11'.

Length 180 m; draft 6.5 m.

Type: Tanker. MMSI: 636092659.

Date/timePositionNaut miles runAvg speedWind from/ knotsBaromVisibWave heightAir tempDewpointWater temp
2017-Sep-24 02:50N 58°12' E 011°11'0 0.0
2017-Sep-24 02:15N 58°12' E 011°11'0 0.0
2017-Sep-24 01:59N 58°12' E 011°11'0 0.0
2017-Sep-24 01:26N 58°12' E 011°11'0 0.0
2017-Sep-24 00:50N 58°12' E 011°11'0 0.0
2017-Sep-24 00:26N 58°12' E 011°11'0 0.0
2017-Sep-23 23:50N 58°12' E 011°11'0 0.0
2017-Sep-23 23:08N 58°12' E 011°11'0 0.0
2017-Sep-23 22:35N 58°12' E 011°11'0 0.0
2017-Sep-23 22:26N 58°12' E 011°11'0 0.0
2017-Sep-23 21:56N 58°12' E 011°11'0 0.0
2017-Sep-23 21:29N 58°12' E 011°11'0 0.0
2017-Sep-23 20:45N 58°12' E 011°11'0 0.0
2017-Sep-23 20:27N 58°12' E 011°11'0 0.0
2017-Sep-22 01:08N 58°12' E 011°11'0 0.0
2017-Sep-22 00:02N 58°12' E 011°11'0 0.0
2017-Sep-21 23:56N 58°12' E 011°11'0 0.0
2017-Sep-21 23:29N 58°12' E 011°11'0 0.8
2017-Sep-21 23:00N 58°12' E 011°11'2 4.7
2017-Sep-21 22:29N 58°09' E 011°11'5 9.6
2017-Sep-21 22:00N 58°05' E 011°13'713.4
2017-Sep-21 21:30N 57°58' E 011°15'714.2
2017-Sep-21 21:00N 57°51' E 011°17'713.8
2017-Sep-21 20:31N 57°44' E 011°19'713.2
2017-Sep-21 20:00N 57°38' E 011°24'612.4
2017-Sep-21 19:31N 57°35' E 011°33'4 7.7
2017-Sep-21 19:00N 57°35' E 011°40'0 0.5
2017-Sep-21 18:29N 57°35' E 011°40'0 0.0
2017-Sep-21 17:59N 57°35' E 011°40'0 0.0
2017-Sep-21 17:29N 57°35' E 011°40'0 0.0
2017-Sep-21 16:59N 57°35' E 011°40'0 0.1
2017-Sep-21 16:29N 57°35' E 011°40'0 0.0
2017-Sep-21 15:59N 57°35' E 011°41'0 0.1
2017-Sep-21 15:29N 57°35' E 011°41'0 0.1
2017-Sep-21 15:00N 57°35' E 011°41'1 2.3
2017-Sep-21 14:30N 57°35' E 011°38'4 8.4
2017-Sep-21 14:00N 57°31' E 011°37'612.8
2017-Sep-21 13:30N 57°24' E 011°37'713.1
2017-Sep-21 13:00N 57°18' E 011°38'713.4
2017-Sep-21 12:30N 57°11' E 011°38'813.8
2017-Sep-21 11:57N 57°04' E 011°41'1013.7
2017-Sep-21 11:13N 56°54' E 011°48'613.2
2017-Sep-21 10:45N 56°48' E 011°52'3512.5
2017-Sep-21 07:56N 56°15' E 012°12'512.4
2017-Sep-21 07:31N 56°12' E 012°20'713.2
2017-Sep-21 07:01N 56°08' E 012°30'612.5
2017-Sep-21 06:31N 56°04' E 012°38'612.1
2017-Sep-21 06:00N 55°58' E 012°42'612.6
2017-Sep-21 05:31N 55°52' E 012°45'713.3
2017-Sep-21 05:00N 55°46' E 012°49'713.7
2017-Sep-21 04:31N 55°40' E 012°56'510.2
2017-Sep-21 04:01N 55°36' E 012°51'510.1
2017-Sep-21 03:31N 55°32' E 012°46'5 9.4
2017-Sep-21 03:00N 55°27' E 012°42'611.9
2017-Sep-21 02:31N 55°22' E 012°41'713.2
2017-Sep-21 02:01N 55°15' E 012°40'713.3
2017-Sep-21 01:30N 55°08' E 012°41'1713.2
2017-Sep-21 00:11N 54°51' E 012°45'213.2
2017-Sep-21 00:00N 54°49' E 012°46'1712.4
2017-Sep-20 22:40N 54°38' E 012°24'413.3
2017-Sep-20 22:22N 54°35' E 012°18'1511.7
2017-Sep-20 21:02N 54°24' E 012°01'012.8
2017-Sep-20 21:00N 54°24' E 012°00'1211.4
2017-Sep-20 19:59N 54°12' E 012°05'3 0.1
2017-Sep-19 08:36N 54°09' E 012°08'0 0.0
2017-Sep-19 05:45N 54°10' E 012°08'0 1.9
2017-Sep-19 05:30N 54°10' E 012°07'3 5.4
2017-Sep-19 04:56N 54°12' E 012°05'7 8.7
2017-Sep-19 04:07N 54°19' E 011°60'1 4.0
2017-Sep-19 03:58N 54°19' E 011°59'511.1
2017-Sep-19 03:30N 54°24' E 011°60'5 9.8
2017-Sep-19 03:00N 54°26' E 012°08'611.7
2017-Sep-19 02:30N 54°30' E 012°13'1311.9
2017-Sep-19 01:27N 54°40' E 012°27'612.3
2017-Sep-19 01:00N 54°43' E 012°35'1812.5
2017-Sep-18 23:35N 54°51' E 013°03'112.6
2017-Sep-18 23:30N 54°52' E 013°04'1113.0
2017-Sep-18 22:40N 54°56' E 013°22'1912.8
2017-Sep-18 21:12N 55°02' E 013°53'912.4
2017-Sep-18 20:27N 55°06' E 014°07'713.1
2017-Sep-18 19:57N 55°11' E 014°14'713.0
2017-Sep-18 19:26N 55°16' E 014°22'613.0
2017-Sep-18 19:01N 55°21' E 014°28'613.0
2017-Sep-18 18:30N 55°25' E 014°35'613.0
2017-Sep-18 18:00N 55°29' E 014°45'713.2
2017-Sep-18 17:30N 55°32' E 014°55'713.2
2017-Sep-18 17:00N 55°35' E 015°06'613.0
2017-Sep-18 16:30N 55°38' E 015°16'713.1
2017-Sep-18 16:00N 55°40' E 015°27'613.0
2017-Sep-18 15:30N 55°41' E 015°38'713.0
2017-Sep-18 15:00N 55°43' E 015°49'713.1
2017-Sep-18 14:30N 55°45' E 016°01'613.0
2017-Sep-18 14:00N 55°46' E 016°12'713.0
2017-Sep-18 13:30N 55°48' E 016°23'713.0
2017-Sep-18 13:00N 55°49' E 016°35'713.0
2017-Sep-18 12:30N 55°51' E 016°46'23812.7
2017-Sep-17 17:43N 58°57' E 021°22'1213.2
2017-Sep-17 16:48N 59°07' E 021°33'4713.2
2017-Sep-17 13:12N 59°33' E 022°51'314.0
2017-Sep-17 13:00N 59°34' E 022°56'714.4
2017-Sep-17 12:30N 59°36' E 023°09'713.8
2017-Sep-17 12:00N 59°38' E 023°22'713.3
2017-Sep-17 11:30N 59°40' E 023°35'713.6
2017-Sep-17 11:00N 59°42' E 023°48'713.8
2017-Sep-17 10:28N 59°44' E 024°02'813.9
2017-Sep-17 09:52N 59°46' E 024°18'513.5
2017-Sep-17 09:30N 59°47' E 024°28'713.5
2017-Sep-17 09:01N 59°48' E 024°41'713.4
2017-Sep-17 08:30N 59°50' E 024°54'3113.6
2017-Sep-17 06:13N 59°56' E 025°54'913.5
2017-Sep-17 05:32N 59°59' E 026°12'012.9
2017-Sep-17 05:30N 59°59' E 026°13'713.4
2017-Sep-17 05:00N 60°00' E 026°26'713.2
2017-Sep-17 04:30N 60°01' E 026°39'713.6
2017-Sep-17 04:00N 60°00' E 026°52'713.9
2017-Sep-17 03:30N 60°00' E 027°06'612.5
2017-Sep-17 03:00N 60°04' E 027°17'713.6
2017-Sep-17 02:30N 60°07' E 027°29'713.6
2017-Sep-17 02:00N 60°11' E 027°40'612.3
2017-Sep-17 01:30N 60°11' E 027°53'713.3
2017-Sep-17 01:00N 60°10' E 028°06'713.1
2017-Sep-17 00:30N 60°07' E 028°18'713.4
2017-Sep-17 00:00N 60°04' E 028°29'611.3
2017-Sep-16 23:30N 59°59' E 028°36'4 7.9
2017-Sep-16 23:00N 59°55' E 028°33'510.8
2017-Sep-16 22:30N 59°51' E 028°27'510.7
2017-Sep-16 22:00N 59°46' E 028°25'4 7.2
2017-Sep-16 21:30N 59°42' E 028°25'2 3.7
2017-Sep-16 20:58N 59°41' E 028°23'0 0.1
2017-Sep-16 20:28N 59°41' E 028°23'0 0.0
2017-Sep-16 19:58N 59°41' E 028°23'0 0.0
2017-Sep-16 19:28N 59°41' E 028°23'0 0.0
2017-Sep-16 18:49N 59°41' E 028°23'0 0.0
2017-Sep-16 18:19N 59°41' E 028°23'0 0.0
2017-Sep-16 17:52N 59°41' E 028°23'0 0.0
2017-Sep-16 17:22N 59°41' E 028°23'0 0.0
2017-Sep-16 16:49N 59°41' E 028°23'0 0.0
2017-Sep-16 16:22N 59°41' E 028°23'0 0.0
2017-Sep-16 15:52N 59°41' E 028°23'0 0.0
2017-Sep-16 15:22N 59°41' E 028°23'0 0.0
2017-Sep-16 14:52N 59°41' E 028°23'0 0.0
2017-Sep-16 14:22N 59°41' E 028°23'0 0.0
2017-Sep-16 13:55N 59°41' E 028°23'0 0.0
2017-Sep-16 13:25N 59°41' E 028°23'0 0.0
2017-Sep-16 12:55N 59°41' E 028°23'0 0.0
2017-Sep-16 12:25N 59°41' E 028°23'0 0.0
2017-Sep-16 11:55N 59°41' E 028°23'0 0.0
2017-Sep-16 11:28N 59°41' E 028°23'0 0.0
2017-Sep-16 10:58N 59°41' E 028°23'0 0.0
2017-Sep-16 10:28N 59°41' E 028°23'0 0.0
2017-Sep-16 09:58N 59°41' E 028°23'0 0.0
2017-Sep-16 09:25N 59°41' E 028°23'0 0.0
2017-Sep-16 08:58N 59°41' E 028°23'0 0.0
2017-Sep-16 08:28N 59°41' E 028°23'0 0.0
2017-Sep-16 07:58N 59°41' E 028°23'0 0.0
2017-Sep-16 07:25N 59°41' E 028°23'0 0.0
2017-Sep-16 06:58N 59°41' E 028°23'0 0.0
2017-Sep-16 06:28N 59°41' E 028°23'0 0.0
2017-Sep-16 05:58N 59°41' E 028°23'0 0.0
2017-Sep-16 05:28N 59°41' E 028°23'0 0.0
2017-Sep-16 04:58N 59°41' E 028°23'0 0.0
2017-Sep-16 04:28N 59°41' E 028°23'0 0.0
2017-Sep-16 03:49N 59°41' E 028°23'0 0.0
2017-Sep-16 03:28N 59°41' E 028°23'0 0.0
2017-Sep-16 02:49N 59°41' E 028°23'0 0.0
2017-Sep-16 02:28N 59°41' E 028°23'0 0.0
2017-Sep-16 01:49N 59°41' E 028°23'0 0.0
2017-Sep-16 01:22N 59°41' E 028°23'0 0.0
2017-Sep-16 00:52N 59°41' E 028°23'0 0.0
2017-Sep-16 00:22N 59°41' E 028°23'0 0.0
2017-Sep-15 23:52N 59°41' E 028°23'0 0.0
2017-Sep-15 23:25N 59°41' E 028°23'0 0.0
2017-Sep-15 22:52N 59°41' E 028°23'0 0.0
2017-Sep-15 22:22N 59°41' E 028°23'0 0.0
2017-Sep-15 21:55N 59°41' E 028°23'0 0.0
2017-Sep-15 21:22N 59°41' E 028°23'0 0.0
2017-Sep-15 20:55N 59°41' E 028°23'0 0.0
2017-Sep-15 20:22N 59°41' E 028°23'0 0.0
2017-Sep-15 19:58N 59°41' E 028°23'0 0.0
2017-Sep-15 19:28N 59°41' E 028°23'0 0.0
2017-Sep-15 18:58N 59°41' E 028°23'0 0.0
2017-Sep-15 18:28N 59°41' E 028°23'0 0.0
2017-Sep-15 17:58N 59°41' E 028°23'0 0.0
2017-Sep-15 17:25N 59°41' E 028°23'0 0.0
2017-Sep-15 16:58N 59°41' E 028°23'0 0.0
2017-Sep-15 16:28N 59°41' E 028°23'0 0.0
2017-Sep-15 15:58N 59°41' E 028°23'0 0.0
2017-Sep-15 15:28N 59°41' E 028°23'0 0.0
2017-Sep-15 14:58N 59°41' E 028°23'0 0.0
2017-Sep-15 14:28N 59°41' E 028°23'0 0.0
2017-Sep-15 13:58N 59°41' E 028°23'0 0.0
2017-Sep-15 13:28N 59°41' E 028°23'0 0.0
2017-Sep-15 12:58N 59°41' E 028°23'0 0.0
2017-Sep-15 12:19N 59°41' E 028°23'0 0.0
2017-Sep-15 11:49N 59°41' E 028°23'0 0.0
2017-Sep-15 11:28N 59°41' E 028°23'0 0.0
2017-Sep-15 10:52N 59°41' E 028°23'0 0.0
2017-Sep-15 10:22N 59°41' E 028°23'0 0.0
2017-Sep-15 10:00N 59°41' E 028°23'1 1.8
2017-Sep-15 09:30N 59°41' E 028°25'4 7.3
2017-Sep-15 09:00N 59°45' E 028°24'4 7.8
2017-Sep-15 08:30N 59°48' E 028°25'4 7.3
2017-Sep-15 08:01N 59°52' E 028°28'4 7.6
2017-Sep-15 07:31N 59°55' E 028°32'2 4.6
2017-Sep-15 07:00N 59°55' E 028°37'0 0.9
2017-Sep-15 06:28N 59°55' E 028°38'0 0.0
2017-Sep-15 05:58N 59°55' E 028°38'0 0.0
2017-Sep-15 05:28N 59°55' E 028°38'0 0.0
2017-Sep-15 04:58N 59°55' E 028°38'0 0.0
2017-Sep-15 04:28N 59°55' E 028°38'0 0.0
2017-Sep-15 03:58N 59°55' E 028°38'0 0.0
2017-Sep-15 03:28N 59°55' E 028°38'0 0.0
2017-Sep-15 02:58N 59°55' E 028°38'0 0.0
2017-Sep-15 02:28N 59°55' E 028°38'0 0.0
2017-Sep-15 01:58N 59°55' E 028°38'0 0.0
2017-Sep-15 01:28N 59°55' E 028°38'0 0.0
2017-Sep-15 00:52N 59°55' E 028°38'0 0.1
2017-Sep-15 00:28N 59°55' E 028°38'0 0.0
2017-Sep-14 23:58N 59°55' E 028°38'0 0.0
2017-Sep-14 23:28N 59°55' E 028°38'1 1.4
2017-Sep-14 23:00N 59°56' E 028°38'2 4.6
2017-Sep-14 22:30N 59°58' E 028°38'5 9.2
2017-Sep-14 22:00N 60°02' E 028°34'713.6
2017-Sep-14 21:31N 60°04' E 028°21'713.5
2017-Sep-14 21:01N 60°08' E 028°10'714.1
2017-Sep-14 20:31N 60°10' E 027°56'713.2
2017-Sep-14 20:01N 60°10' E 027°43'714.2
2017-Sep-14 19:30N 60°06' E 027°31'814.4
2017-Sep-14 18:58N 60°02' E 027°17'714.5
2017-Sep-14 18:31N 59°59' E 027°06'713.7
2017-Sep-14 18:00N 59°59' E 026°52'713.9
2017-Sep-14 17:31N 59°59' E 026°39'714.2
2017-Sep-14 17:01N 59°57' E 026°25'4414.0
2017-Sep-14 13:52N 59°47' E 024°60'513.5
2017-Sep-14 13:31N 59°45' E 024°51'713.3
2017-Sep-14 13:00N 59°38' E 024°50'4 7.5
2017-Sep-14 12:30N 59°34' E 024°50'0 0.1
2017-Sep-14 11:58N 59°34' E 024°50'0 0.0
2017-Sep-14 11:28N 59°34' E 024°50'0 0.0
2017-Sep-14 10:52N 59°34' E 024°50'0 0.0
2017-Sep-14 10:28N 59°35' E 024°50'0 0.1
2017-Sep-14 09:58N 59°34' E 024°50'0 0.0
2017-Sep-14 09:28N 59°34' E 024°50'0 0.0
2017-Sep-14 08:58N 59°35' E 024°50'0 0.0
2017-Sep-14 08:28N 59°35' E 024°50'0 0.1
2017-Sep-14 07:58N 59°35' E 024°50'0 0.2
2017-Sep-14 07:28N 59°34' E 024°50'2 3.6
2017-Sep-14 07:00N 59°36' E 024°49'4 8.7
2017-Sep-14 06:31N 59°40' E 024°45'612.9
2017-Sep-14 06:01N 59°43' E 024°34'714.3
2017-Sep-14 05:30N 59°42' E 024°20'714.4
2017-Sep-14 05:00N 59°40' E 024°06'1014.1
2017-Sep-14 04:18N 59°36' E 023°47'414.2
2017-Sep-14 04:00N 59°35' E 023°39'714.5
2017-Sep-14 03:30N 59°33' E 023°26'  
Track history (hours):
 
Tides and Currents Weather Stations Pressure Air Temp Water Temp Dewpoint Dewpoint Depression Visibility Wind Speed Wind Dir Waves Ship Positions

Norient Saturn

Last reported at 2017-Sep-24 02:50 UTC. Time now 2017-Sep-24 03:22 UTC.
Position N 58°12' E 011°11'.

Length 180 m; draft 6.5 m.

Type: Tanker. MMSI: 636092659.

Date/timePositionNaut miles runAvg speedWind from/ knotsBaromVisibWave heightAir tempDewpointWater temp
2017-Sep-24 02:50N 58°12' E 011°11'0 0.0
2017-Sep-24 02:15N 58°12' E 011°11'0 0.0
2017-Sep-24 01:59N 58°12' E 011°11'0 0.0
2017-Sep-24 01:26N 58°12' E 011°11'0 0.0
2017-Sep-24 00:50N 58°12' E 011°11'0 0.0
2017-Sep-24 00:26N 58°12' E 011°11'0 0.0
2017-Sep-23 23:50N 58°12' E 011°11'0 0.0
2017-Sep-23 23:08N 58°12' E 011°11'0 0.0
2017-Sep-23 22:35N 58°12' E 011°11'0 0.0
2017-Sep-23 22:26N 58°12' E 011°11'0 0.0
2017-Sep-23 21:56N 58°12' E 011°11'0 0.0
2017-Sep-23 21:29N 58°12' E 011°11'0 0.0
2017-Sep-23 20:45N 58°12' E 011°11'0 0.0
2017-Sep-23 20:27N 58°12' E 011°11'0 0.0
2017-Sep-22 01:08N 58°12' E 011°11'0 0.0
2017-Sep-22 00:02N 58°12' E 011°11'0 0.0
2017-Sep-21 23:56N 58°12' E 011°11'0 0.0
2017-Sep-21 23:29N 58°12' E 011°11'0 0.8
2017-Sep-21 23:00N 58°12' E 011°11'2 4.7
2017-Sep-21 22:29N 58°09' E 011°11'5 9.6
2017-Sep-21 22:00N 58°05' E 011°13'713.4
2017-Sep-21 21:30N 57°58' E 011°15'714.2
2017-Sep-21 21:00N 57°51' E 011°17'713.8
2017-Sep-21 20:31N 57°44' E 011°19'713.2
2017-Sep-21 20:00N 57°38' E 011°24'612.4
2017-Sep-21 19:31N 57°35' E 011°33'4 7.7
2017-Sep-21 19:00N 57°35' E 011°40'0 0.5
2017-Sep-21 18:29N 57°35' E 011°40'0 0.0
2017-Sep-21 17:59N 57°35' E 011°40'0 0.0
2017-Sep-21 17:29N 57°35' E 011°40'0 0.0
2017-Sep-21 16:59N 57°35' E 011°40'0 0.1
2017-Sep-21 16:29N 57°35' E 011°40'0 0.0
2017-Sep-21 15:59N 57°35' E 011°41'0 0.1
2017-Sep-21 15:29N 57°35' E 011°41'0 0.1
2017-Sep-21 15:00N 57°35' E 011°41'1 2.3
2017-Sep-21 14:30N 57°35' E 011°38'4 8.4
2017-Sep-21 14:00N 57°31' E 011°37'612.8
2017-Sep-21 13:30N 57°24' E 011°37'713.1
2017-Sep-21 13:00N 57°18' E 011°38'713.4
2017-Sep-21 12:30N 57°11' E 011°38'813.8
2017-Sep-21 11:57N 57°04' E 011°41'1013.7
2017-Sep-21 11:13N 56°54' E 011°48'613.2
2017-Sep-21 10:45N 56°48' E 011°52'3512.5
2017-Sep-21 07:56N 56°15' E 012°12'512.4
2017-Sep-21 07:31N 56°12' E 012°20'713.2
2017-Sep-21 07:01N 56°08' E 012°30'612.5
2017-Sep-21 06:31N 56°04' E 012°38'612.1
2017-Sep-21 06:00N 55°58' E 012°42'612.6
2017-Sep-21 05:31N 55°52' E 012°45'713.3
2017-Sep-21 05:00N 55°46' E 012°49'713.7
2017-Sep-21 04:31N 55°40' E 012°56'510.2
2017-Sep-21 04:01N 55°36' E 012°51'510.1
2017-Sep-21 03:31N 55°32' E 012°46'5 9.4
2017-Sep-21 03:00N 55°27' E 012°42'611.9
2017-Sep-21 02:31N 55°22' E 012°41'713.2
2017-Sep-21 02:01N 55°15' E 012°40'713.3
2017-Sep-21 01:30N 55°08' E 012°41'1713.2
2017-Sep-21 00:11N 54°51' E 012°45'213.2
2017-Sep-21 00:00N 54°49' E 012°46'1712.4
2017-Sep-20 22:40N 54°38' E 012°24'413.3
2017-Sep-20 22:22N 54°35' E 012°18'1511.7
2017-Sep-20 21:02N 54°24' E 012°01'012.8
2017-Sep-20 21:00N 54°24' E 012°00'1211.4
2017-Sep-20 19:59N 54°12' E 012°05'3 0.1
2017-Sep-19 08:36N 54°09' E 012°08'0 0.0
2017-Sep-19 05:45N 54°10' E 012°08'0 1.9
2017-Sep-19 05:30N 54°10' E 012°07'3 5.4
2017-Sep-19 04:56N 54°12' E 012°05'7 8.7
2017-Sep-19 04:07N 54°19' E 011°60'1 4.0
2017-Sep-19 03:58N 54°19' E 011°59'511.1
2017-Sep-19 03:30N 54°24' E 011°60'5 9.8
2017-Sep-19 03:00N 54°26' E 012°08'611.7
2017-Sep-19 02:30N 54°30' E 012°13'1311.9
2017-Sep-19 01:27N 54°40' E 012°27'612.3
2017-Sep-19 01:00N 54°43' E 012°35'1812.5
2017-Sep-18 23:35N 54°51' E 013°03'112.6
2017-Sep-18 23:30N 54°52' E 013°04'1113.0
2017-Sep-18 22:40N 54°56' E 013°22'1912.8
2017-Sep-18 21:12N 55°02' E 013°53'912.4
2017-Sep-18 20:27N 55°06' E 014°07'713.1
2017-Sep-18 19:57N 55°11' E 014°14'713.0
2017-Sep-18 19:26N 55°16' E 014°22'613.0
2017-Sep-18 19:01N 55°21' E 014°28'613.0
2017-Sep-18 18:30N 55°25' E 014°35'613.0
2017-Sep-18 18:00N 55°29' E 014°45'713.2
2017-Sep-18 17:30N 55°32' E 014°55'713.2
2017-Sep-18 17:00N 55°35' E 015°06'613.0
2017-Sep-18 16:30N 55°38' E 015°16'713.1
2017-Sep-18 16:00N 55°40' E 015°27'613.0
2017-Sep-18 15:30N 55°41' E 015°38'713.0
2017-Sep-18 15:00N 55°43' E 015°49'713.1
2017-Sep-18 14:30N 55°45' E 016°01'613.0
2017-Sep-18 14:00N 55°46' E 016°12'713.0
2017-Sep-18 13:30N 55°48' E 016°23'713.0
2017-Sep-18 13:00N 55°49' E 016°35'713.0
2017-Sep-18 12:30N 55°51' E 016°46'23812.7
2017-Sep-17 17:43N 58°57' E 021°22'1213.2
2017-Sep-17 16:48N 59°07' E 021°33'4713.2
2017-Sep-17 13:12N 59°33' E 022°51'314.0
2017-Sep-17 13:00N 59°34' E 022°56'714.4
2017-Sep-17 12:30N 59°36' E 023°09'713.8
2017-Sep-17 12:00N 59°38' E 023°22'713.3
2017-Sep-17 11:30N 59°40' E 023°35'713.6
2017-Sep-17 11:00N 59°42' E 023°48'713.8
2017-Sep-17 10:28N 59°44' E 024°02'813.9
2017-Sep-17 09:52N 59°46' E 024°18'513.5
2017-Sep-17 09:30N 59°47' E 024°28'713.5
2017-Sep-17 09:01N 59°48' E 024°41'713.4
2017-Sep-17 08:30N 59°50' E 024°54'3113.6
2017-Sep-17 06:13N 59°56' E 025°54'913.5
2017-Sep-17 05:32N 59°59' E 026°12'012.9
2017-Sep-17 05:30N 59°59' E 026°13'713.4
2017-Sep-17 05:00N 60°00' E 026°26'713.2
2017-Sep-17 04:30N 60°01' E 026°39'713.6
2017-Sep-17 04:00N 60°00' E 026°52'713.9
2017-Sep-17 03:30N 60°00' E 027°06'612.5
2017-Sep-17 03:00N 60°04' E 027°17'713.6
2017-Sep-17 02:30N 60°07' E 027°29'713.6
2017-Sep-17 02:00N 60°11' E 027°40'612.3
2017-Sep-17 01:30N 60°11' E 027°53'713.3
2017-Sep-17 01:00N 60°10' E 028°06'713.1
2017-Sep-17 00:30N 60°07' E 028°18'713.4
2017-Sep-17 00:00N 60°04' E 028°29'611.3
2017-Sep-16 23:30N 59°59' E 028°36'4 7.9
2017-Sep-16 23:00N 59°55' E 028°33'510.8
2017-Sep-16 22:30N 59°51' E 028°27'510.7
2017-Sep-16 22:00N 59°46' E 028°25'4 7.2
2017-Sep-16 21:30N 59°42' E 028°25'2 3.7
2017-Sep-16 20:58N 59°41' E 028°23'0 0.1
2017-Sep-16 20:28N 59°41' E 028°23'0 0.0
2017-Sep-16 19:58N 59°41' E 028°23'0 0.0
2017-Sep-16 19:28N 59°41' E 028°23'0 0.0
2017-Sep-16 18:49N 59°41' E 028°23'0 0.0
2017-Sep-16 18:19N 59°41' E 028°23'0 0.0
2017-Sep-16 17:52N 59°41' E 028°23'0 0.0
2017-Sep-16 17:22N 59°41' E 028°23'0 0.0
2017-Sep-16 16:49N 59°41' E 028°23'0 0.0
2017-Sep-16 16:22N 59°41' E 028°23'0 0.0
2017-Sep-16 15:52N 59°41' E 028°23'0 0.0
2017-Sep-16 15:22N 59°41' E 028°23'0 0.0
2017-Sep-16 14:52N 59°41' E 028°23'0 0.0
2017-Sep-16 14:22N 59°41' E 028°23'0 0.0
2017-Sep-16 13:55N 59°41' E 028°23'0 0.0
2017-Sep-16 13:25N 59°41' E 028°23'0 0.0
2017-Sep-16 12:55N 59°41' E 028°23'0 0.0
2017-Sep-16 12:25N 59°41' E 028°23'0 0.0
2017-Sep-16 11:55N 59°41' E 028°23'0 0.0
2017-Sep-16 11:28N 59°41' E 028°23'0 0.0
2017-Sep-16 10:58N 59°41' E 028°23'0 0.0
2017-Sep-16 10:28N 59°41' E 028°23'0 0.0
2017-Sep-16 09:58N 59°41' E 028°23'0 0.0
2017-Sep-16 09:25N 59°41' E 028°23'0 0.0
2017-Sep-16 08:58N 59°41' E 028°23'0 0.0
2017-Sep-16 08:28N 59°41' E 028°23'0 0.0
2017-Sep-16 07:58N 59°41' E 028°23'0 0.0
2017-Sep-16 07:25N 59°41' E 028°23'0 0.0
2017-Sep-16 06:58N 59°41' E 028°23'0 0.0
2017-Sep-16 06:28N 59°41' E 028°23'0 0.0
2017-Sep-16 05:58N 59°41' E 028°23'0 0.0
2017-Sep-16 05:28N 59°41' E 028°23'0 0.0
2017-Sep-16 04:58N 59°41' E 028°23'0 0.0
2017-Sep-16 04:28N 59°41' E 028°23'0 0.0
2017-Sep-16 03:49N 59°41' E 028°23'0 0.0
2017-Sep-16 03:28N 59°41' E 028°23'0 0.0
2017-Sep-16 02:49N 59°41' E 028°23'0 0.0
2017-Sep-16 02:28N 59°41' E 028°23'0 0.0
2017-Sep-16 01:49N 59°41' E 028°23'0 0.0
2017-Sep-16 01:22N 59°41' E 028°23'0 0.0
2017-Sep-16 00:52N 59°41' E 028°23'0 0.0
2017-Sep-16 00:22N 59°41' E 028°23'0 0.0
2017-Sep-15 23:52N 59°41' E 028°23'0 0.0
2017-Sep-15 23:25N 59°41' E 028°23'0 0.0
2017-Sep-15 22:52N 59°41' E 028°23'0 0.0
2017-Sep-15 22:22N 59°41' E 028°23'0 0.0
2017-Sep-15 21:55N 59°41' E 028°23'0 0.0
2017-Sep-15 21:22N 59°41' E 028°23'0 0.0
2017-Sep-15 20:55N 59°41' E 028°23'0 0.0
2017-Sep-15 20:22N 59°41' E 028°23'0 0.0
2017-Sep-15 19:58N 59°41' E 028°23'0 0.0
2017-Sep-15 19:28N 59°41' E 028°23'0 0.0
2017-Sep-15 18:58N 59°41' E 028°23'0 0.0
2017-Sep-15 18:28N 59°41' E 028°23'0 0.0
2017-Sep-15 17:58N 59°41' E 028°23'0 0.0
2017-Sep-15 17:25N 59°41' E 028°23'0 0.0
2017-Sep-15 16:58N 59°41' E 028°23'0 0.0
2017-Sep-15 16:28N 59°41' E 028°23'0 0.0
2017-Sep-15 15:58N 59°41' E 028°23'0 0.0
2017-Sep-15 15:28N 59°41' E 028°23'0 0.0
2017-Sep-15 14:58N 59°41' E 028°23'0 0.0
2017-Sep-15 14:28N 59°41' E 028°23'0 0.0
2017-Sep-15 13:58N 59°41' E 028°23'0 0.0
2017-Sep-15 13:28N 59°41' E 028°23'0 0.0
2017-Sep-15 12:58N 59°41' E 028°23'0 0.0
2017-Sep-15 12:19N 59°41' E 028°23'0 0.0
2017-Sep-15 11:49N 59°41' E 028°23'0 0.0
2017-Sep-15 11:28N 59°41' E 028°23'0 0.0
2017-Sep-15 10:52N 59°41' E 028°23'0 0.0
2017-Sep-15 10:22N 59°41' E 028°23'0 0.0
2017-Sep-15 10:00N 59°41' E 028°23'1 1.8
2017-Sep-15 09:30N 59°41' E 028°25'4 7.3
2017-Sep-15 09:00N 59°45' E 028°24'4 7.8
2017-Sep-15 08:30N 59°48' E 028°25'4 7.3
2017-Sep-15 08:01N 59°52' E 028°28'4 7.6
2017-Sep-15 07:31N 59°55' E 028°32'2 4.6
2017-Sep-15 07:00N 59°55' E 028°37'0 0.9
2017-Sep-15 06:28N 59°55' E 028°38'0 0.0
2017-Sep-15 05:58N 59°55' E 028°38'0 0.0
2017-Sep-15 05:28N 59°55' E 028°38'0 0.0
2017-Sep-15 04:58N 59°55' E 028°38'0 0.0
2017-Sep-15 04:28N 59°55' E 028°38'0 0.0
2017-Sep-15 03:58N 59°55' E 028°38'0 0.0
2017-Sep-15 03:28N 59°55' E 028°38'0 0.0
2017-Sep-15 02:58N 59°55' E 028°38'0 0.0
2017-Sep-15 02:28N 59°55' E 028°38'0 0.0
2017-Sep-15 01:58N 59°55' E 028°38'0 0.0
2017-Sep-15 01:28N 59°55' E 028°38'0 0.0
2017-Sep-15 00:52N 59°55' E 028°38'0 0.1
2017-Sep-15 00:28N 59°55' E 028°38'0 0.0
2017-Sep-14 23:58N 59°55' E 028°38'0 0.0
2017-Sep-14 23:28N 59°55' E 028°38'1 1.4
2017-Sep-14 23:00N 59°56' E 028°38'2 4.6
2017-Sep-14 22:30N 59°58' E 028°38'5 9.2
2017-Sep-14 22:00N 60°02' E 028°34'713.6
2017-Sep-14 21:31N 60°04' E 028°21'713.5
2017-Sep-14 21:01N 60°08' E 028°10'714.1
2017-Sep-14 20:31N 60°10' E 027°56'713.2
2017-Sep-14 20:01N 60°10' E 027°43'714.2
2017-Sep-14 19:30N 60°06' E 027°31'814.4
2017-Sep-14 18:58N 60°02' E 027°17'714.5
2017-Sep-14 18:31N 59°59' E 027°06'713.7
2017-Sep-14 18:00N 59°59' E 026°52'713.9
2017-Sep-14 17:31N 59°59' E 026°39'714.2
2017-Sep-14 17:01N 59°57' E 026°25'4414.0
2017-Sep-14 13:52N 59°47' E 024°60'513.5
2017-Sep-14 13:31N 59°45' E 024°51'713.3
2017-Sep-14 13:00N 59°38' E 024°50'4 7.5
2017-Sep-14 12:30N 59°34' E 024°50'0 0.1
2017-Sep-14 11:58N 59°34' E 024°50'0 0.0
2017-Sep-14 11:28N 59°34' E 024°50'0 0.0
2017-Sep-14 10:52N 59°34' E 024°50'0 0.0
2017-Sep-14 10:28N 59°35' E 024°50'0 0.1
2017-Sep-14 09:58N 59°34' E 024°50'0 0.0
2017-Sep-14 09:28N 59°34' E 024°50'0 0.0
2017-Sep-14 08:58N 59°35' E 024°50'0 0.0
2017-Sep-14 08:28N 59°35' E 024°50'0 0.1
2017-Sep-14 07:58N 59°35' E 024°50'0 0.2
2017-Sep-14 07:28N 59°34' E 024°50'2 3.6
2017-Sep-14 07:00N 59°36' E 024°49'4 8.7
2017-Sep-14 06:31N 59°40' E 024°45'612.9
2017-Sep-14 06:01N 59°43' E 024°34'714.3
2017-Sep-14 05:30N 59°42' E 024°20'714.4
2017-Sep-14 05:00N 59°40' E 024°06'1014.1
2017-Sep-14 04:18N 59°36' E 023°47'414.2
2017-Sep-14 04:00N 59°35' E 023°39'714.5
2017-Sep-14 03:30N 59°33' E 023°26'  

Dump ship's entire track history